createdAt,value
2023-05-06T00:01:09.452Z,18.52
2023-05-06T00:03:45.521Z,18.50
2023-05-06T00:06:22.191Z,18.50
2023-05-06T00:08:58.437Z,18.50
2023-05-06T00:11:35.342Z,18.40
2023-05-06T00:14:12.571Z,18.40
2023-05-06T00:16:51.125Z,18.32
2023-05-06T00:19:27.751Z,18.30
2023-05-06T00:22:04.174Z,18.32
2023-05-06T00:24:41.171Z,18.40
2023-05-06T00:27:17.799Z,18.30
2023-05-06T00:29:53.999Z,18.30
2023-05-06T00:32:30.531Z,18.30
2023-05-06T00:35:07.343Z,18.30
2023-05-06T00:37:43.861Z,18.30
2023-05-06T00:40:22.065Z,18.20
2023-05-06T00:42:58.320Z,18.20
2023-05-06T00:45:35.640Z,18.20
2023-05-06T00:48:12.875Z,18.20
2023-05-06T00:50:51.312Z,18.20
2023-05-06T00:53:29.414Z,18.20
2023-05-06T00:56:05.618Z,18.10
2023-05-06T00:58:44.254Z,18.10
2023-05-06T01:01:22.034Z,18.10
2023-05-06T01:03:58.850Z,18.04
2023-05-06T01:06:43.583Z,18.00
2023-05-06T01:09:34.347Z,17.98
2023-05-06T01:12:20.319Z,17.90
2023-05-06T01:15:09.938Z,17.90
2023-05-06T01:17:50.056Z,17.90
2023-05-06T01:20:28.097Z,17.90
2023-05-06T01:23:04.895Z,17.86
2023-05-06T01:25:41.021Z,17.80
2023-05-06T01:28:17.534Z,17.80
2023-05-06T01:31:06.456Z,17.80
2023-05-06T01:33:53.142Z,17.80
2023-05-06T01:36:36.450Z,17.80
2023-05-06T01:39:20.538Z,17.80
2023-05-06T01:41:59.876Z,17.80
2023-05-06T01:44:42.030Z,17.80
2023-05-06T01:47:20.026Z,17.80
2023-05-06T01:49:57.475Z,17.82
2023-05-06T01:52:34.214Z,17.82
2023-05-06T01:55:13.708Z,17.80
2023-05-06T01:57:49.899Z,17.80
2023-05-06T02:00:29.108Z,17.80
2023-05-06T02:03:05.717Z,17.80
2023-05-06T02:05:42.333Z,17.80
2023-05-06T02:08:20.359Z,17.80
2023-05-06T02:10:57.109Z,17.80
2023-05-06T02:13:34.414Z,17.80
2023-05-06T02:16:12.516Z,17.80
2023-05-06T02:18:48.773Z,17.80
2023-05-06T02:21:26.087Z,17.80
2023-05-06T02:24:02.774Z,17.80
2023-05-06T02:26:39.775Z,17.80
2023-05-06T02:29:16.041Z,17.80
2023-05-06T02:31:52.758Z,17.74
2023-05-06T02:34:28.564Z,17.70
2023-05-06T02:37:04.611Z,17.68
2023-05-06T02:39:41.794Z,17.62
2023-05-06T02:42:18.247Z,17.64
2023-05-06T02:44:54.847Z,17.60
2023-05-06T02:47:30.382Z,17.60
2023-05-06T02:50:05.709Z,17.60
2023-05-06T02:52:41.175Z,17.60
2023-05-06T02:55:18.848Z,17.50
2023-05-06T02:57:54.909Z,17.50
2023-05-06T03:00:31.384Z,17.50
2023-05-06T03:03:07.426Z,17.50
2023-05-06T03:05:43.295Z,17.50
2023-05-06T03:08:18.963Z,17.44
2023-05-06T03:10:55.664Z,17.50
2023-05-06T03:13:32.983Z,17.50
2023-05-06T03:16:15.004Z,17.52
2023-05-06T03:18:53.259Z,17.60
2023-05-06T03:21:29.559Z,17.52
2023-05-06T03:24:07.772Z,17.58
2023-05-06T03:26:44.171Z,17.58
2023-05-06T03:29:20.968Z,17.50
2023-05-06T03:31:59.865Z,17.50
2023-05-06T03:34:36.384Z,17.40
2023-05-06T03:37:12.735Z,17.40
2023-05-06T03:39:50.075Z,17.40
2023-05-06T03:42:26.748Z,17.40
2023-05-06T03:45:03.530Z,17.40
2023-05-06T03:47:40.414Z,17.40
2023-05-06T03:50:19.706Z,17.30
2023-05-06T03:52:55.822Z,17.30
2023-05-06T03:55:32.979Z,17.30
2023-05-06T03:58:09.734Z,17.30
2023-05-06T04:00:45.696Z,17.30
2023-05-06T04:03:22.148Z,17.26
2023-05-06T04:05:59.911Z,17.20
2023-05-06T04:08:36.315Z,17.20
2023-05-06T04:11:16.193Z,17.20
2023-05-06T04:13:52.251Z,17.20
2023-05-06T04:16:29.238Z,17.20
2023-05-06T04:19:06.716Z,17.22
2023-05-06T04:21:43.912Z,17.26
2023-05-06T04:24:21.817Z,17.30
2023-05-06T04:26:58.771Z,17.30
2023-05-06T04:29:34.932Z,17.30
2023-05-06T04:32:13.753Z,17.30
2023-05-06T04:34:49.871Z,17.30
2023-05-06T04:37:25.817Z,17.22
2023-05-06T04:40:17.044Z,17.20
2023-05-06T04:42:54.454Z,17.10
2023-05-06T04:45:34.661Z,17.10
2023-05-06T04:48:13.155Z,17.10
2023-05-06T04:50:49.145Z,17.10
2023-05-06T04:53:24.971Z,17.20
2023-05-06T04:56:02.633Z,17.20
2023-05-06T04:58:39.282Z,17.20
2023-05-06T05:01:15.951Z,17.20
2023-05-06T05:03:52.503Z,17.10
2023-05-06T05:06:30.313Z,17.00
2023-05-06T05:09:05.997Z,17.00
2023-05-06T05:11:44.682Z,17.00
2023-05-06T05:14:21.856Z,17.00
2023-05-06T05:16:57.797Z,17.00
2023-05-06T05:19:33.702Z,17.00
2023-05-06T05:22:10.265Z,17.08
2023-05-06T05:24:46.632Z,17.10
2023-05-06T05:27:23.421Z,17.20
2023-05-06T05:30:00.851Z,17.30
2023-05-06T05:32:39.222Z,17.40
2023-05-06T05:35:16.522Z,17.40
2023-05-06T05:37:53.509Z,17.40
2023-05-06T05:40:30.091Z,17.50
2023-05-06T05:43:06.314Z,17.50
2023-05-06T05:45:46.371Z,17.60
2023-05-06T05:48:23.252Z,17.60
2023-05-06T05:51:01.210Z,17.70
2023-05-06T05:53:38.028Z,17.76
2023-05-06T05:56:15.766Z,17.80
2023-05-06T05:58:51.349Z,17.84
2023-05-06T06:01:27.601Z,17.90
2023-05-06T06:04:05.583Z,18.00
2023-05-06T06:06:41.886Z,18.00
2023-05-06T06:09:19.135Z,18.10
2023-05-06T06:11:56.203Z,18.20
2023-05-06T06:14:33.799Z,18.26
2023-05-06T06:17:10.600Z,18.40
2023-05-06T06:19:47.466Z,18.50
2023-05-06T06:22:23.863Z,18.60
2023-05-06T06:25:01.411Z,18.70
2023-05-06T06:27:39.599Z,18.86
2023-05-06T06:30:20.228Z,19.00
2023-05-06T06:32:58.915Z,19.16
2023-05-06T06:35:35.205Z,19.30
2023-05-06T06:38:11.530Z,19.50
2023-05-06T06:40:48.287Z,19.70
2023-05-06T06:43:25.758Z,19.90
2023-05-06T06:46:03.979Z,20.10
2023-05-06T06:48:40.631Z,20.20
2023-05-06T06:51:17.112Z,20.36
2023-05-06T06:53:53.979Z,20.50
2023-05-06T06:56:30.655Z,20.60
2023-05-06T06:59:07.740Z,20.60
2023-05-06T07:01:43.943Z,20.70
2023-05-06T07:04:20.408Z,20.80
2023-05-06T07:06:56.917Z,20.86
2023-05-06T07:09:35.464Z,20.90
2023-05-06T07:12:12.886Z,21.00
2023-05-06T07:14:49.428Z,21.10
2023-05-06T07:17:26.296Z,21.20
2023-05-06T07:20:02.295Z,21.30
2023-05-06T07:22:39.245Z,21.30
2023-05-06T07:25:19.064Z,21.40
2023-05-06T07:27:56.318Z,21.50
2023-05-06T07:30:33.188Z,21.60
2023-05-06T07:33:09.949Z,21.70
2023-05-06T07:35:46.213Z,21.80
2023-05-06T07:38:23.351Z,21.90
2023-05-06T07:41:00.416Z,22.00
2023-05-06T07:43:36.998Z,22.04
2023-05-06T07:46:13.754Z,22.10
2023-05-06T07:48:50.936Z,22.20
2023-05-06T07:51:27.506Z,22.30
2023-05-06T07:54:04.497Z,22.32
2023-05-06T07:56:41.113Z,22.40
2023-05-06T07:59:17.002Z,22.50
2023-05-06T08:01:52.964Z,22.50
2023-05-06T08:04:30.073Z,22.50
2023-05-06T08:07:05.674Z,22.60
2023-05-06T08:09:42.670Z,22.60
2023-05-06T08:12:19.492Z,22.70
2023-05-06T08:14:55.906Z,22.70
2023-05-06T08:17:32.188Z,22.80
2023-05-06T08:20:13.686Z,22.80
2023-05-06T08:22:50.146Z,22.82
2023-05-06T08:25:26.796Z,22.90
2023-05-06T08:28:02.680Z,23.00
2023-05-06T08:30:38.334Z,23.06
2023-05-06T08:33:15.639Z,23.10
2023-05-06T08:35:51.786Z,23.20
2023-05-06T08:38:28.095Z,23.20
2023-05-06T08:41:10.763Z,23.20
2023-05-06T08:43:51.805Z,23.20
2023-05-06T08:46:31.147Z,23.20
2023-05-06T08:49:08.607Z,23.28
2023-05-06T08:51:48.563Z,23.30
2023-05-06T08:54:28.536Z,23.30
2023-05-06T08:57:08.141Z,23.30
2023-05-06T08:59:46.750Z,23.34
2023-05-06T09:02:23.989Z,23.40
2023-05-06T09:05:02.289Z,23.40
2023-05-06T09:07:38.350Z,23.40
2023-05-06T09:10:20.514Z,23.48
2023-05-06T09:12:59.580Z,23.50
2023-05-06T09:15:47.450Z,23.60
2023-05-06T09:18:23.652Z,23.60
2023-05-06T09:21:00.890Z,23.68
2023-05-06T09:23:38.392Z,23.70
2023-05-06T09:26:15.186Z,23.80
2023-05-06T09:28:55.978Z,23.82
2023-05-06T09:31:31.037Z,23.90
2023-05-06T09:34:08.014Z,23.90
2023-05-06T09:36:44.389Z,24.00
2023-05-06T09:39:20.831Z,24.00
2023-05-06T09:41:57.163Z,24.10
2023-05-06T09:44:35.284Z,24.10
2023-05-06T09:47:12.276Z,24.20
2023-05-06T09:49:49.181Z,24.20
2023-05-06T09:52:25.627Z,24.30
2023-05-06T09:55:03.708Z,24.30
2023-05-06T09:57:39.590Z,24.30
2023-05-06T10:00:20.279Z,24.20
2023-05-06T10:02:56.922Z,24.26
2023-05-06T10:05:34.127Z,24.30
2023-05-06T10:08:11.426Z,24.40
2023-05-06T10:10:51.535Z,24.46
2023-05-06T10:13:28.034Z,24.50
2023-05-06T10:16:05.843Z,24.50
2023-05-06T10:18:46.049Z,24.50
2023-05-06T10:21:30.624Z,24.60
2023-05-06T10:24:17.732Z,24.70
2023-05-06T10:26:58.171Z,24.72
2023-05-06T10:29:34.659Z,24.80
2023-05-06T10:32:12.491Z,24.80
2023-05-06T10:34:56.128Z,24.90
2023-05-06T10:37:34.873Z,25.00
2023-05-06T10:40:17.016Z,25.00
2023-05-06T10:42:53.630Z,25.00
2023-05-06T10:45:30.392Z,25.00
2023-05-06T10:48:16.384Z,25.10
2023-05-06T10:50:53.284Z,25.20
2023-05-06T10:54:17.473Z,25.30
2023-05-06T10:57:14.159Z,25.40
2023-05-06T10:59:55.151Z,25.50
2023-05-06T11:02:34.663Z,25.52
2023-05-06T11:05:14.022Z,25.60
2023-05-06T11:07:56.018Z,25.60
2023-05-06T11:10:40.595Z,25.60
2023-05-06T11:13:40.928Z,25.70
2023-05-06T11:16:53.149Z,25.78
2023-05-06T11:19:32.441Z,25.80
2023-05-06T11:22:08.677Z,25.70
2023-05-06T11:24:49.187Z,25.70
2023-05-06T11:27:26.383Z,25.60
2023-05-06T11:30:03.486Z,25.70
2023-05-06T11:32:40.092Z,25.80
2023-05-06T11:35:19.786Z,25.90
2023-05-06T11:37:56.507Z,25.90
2023-05-06T11:40:37.365Z,25.98
2023-05-06T11:43:20.454Z,26.00
2023-05-06T11:45:56.613Z,26.00
2023-05-06T11:48:33.790Z,26.10
2023-05-06T11:51:10.954Z,26.08
2023-05-06T11:53:47.413Z,26.00
2023-05-06T11:56:24.055Z,26.00
2023-05-06T11:59:02.071Z,26.10
2023-05-06T12:01:38.166Z,26.18
2023-05-06T12:04:15.006Z,26.20
2023-05-06T12:06:51.317Z,26.30
2023-05-06T12:09:27.980Z,26.30
2023-05-06T12:12:04.530Z,26.40
2023-05-06T12:14:42.572Z,26.48
2023-05-06T12:17:20.009Z,26.50
2023-05-06T12:19:57.283Z,26.46
2023-05-06T12:22:34.174Z,26.50
2023-05-06T12:25:24.391Z,26.50
2023-05-06T12:28:01.499Z,26.50
2023-05-06T12:30:40.978Z,26.54
2023-05-06T12:33:18.101Z,26.60
2023-05-06T12:35:55.158Z,26.62
2023-05-06T12:38:32.474Z,26.64
2023-05-06T12:41:10.023Z,26.70
2023-05-06T12:43:46.183Z,26.80
2023-05-06T12:46:23.374Z,26.78
2023-05-06T12:49:06.919Z,26.70
2023-05-06T12:51:44.788Z,26.70
2023-05-06T12:54:37.586Z,26.70
2023-05-06T12:57:13.302Z,26.80
2023-05-06T12:59:50.760Z,26.90
2023-05-06T13:02:26.821Z,27.00
2023-05-06T13:05:03.176Z,27.02
2023-05-06T13:07:39.959Z,27.10
2023-05-06T13:10:18.494Z,27.18
2023-05-06T13:12:55.096Z,27.16
2023-05-06T13:15:30.753Z,27.10
2023-05-06T13:18:07.990Z,27.10
2023-05-06T13:20:44.763Z,27.10
2023-05-06T13:23:25.141Z,26.98
2023-05-06T13:26:05.135Z,26.80
2023-05-06T13:28:41.929Z,26.80
2023-05-06T13:31:18.269Z,26.80
2023-05-06T13:33:55.587Z,26.80
2023-05-06T13:36:31.469Z,26.80
2023-05-06T13:39:07.178Z,26.90
2023-05-06T13:41:43.943Z,27.00
2023-05-06T13:44:20.832Z,27.10
2023-05-06T13:46:56.795Z,27.18
2023-05-06T13:49:33.290Z,27.20
2023-05-06T13:52:09.721Z,27.20
2023-05-06T13:54:46.973Z,27.14
2023-05-06T13:57:24.747Z,27.10
2023-05-06T14:00:01.598Z,27.10
2023-05-06T14:02:42.895Z,26.90
2023-05-06T14:05:19.680Z,26.80
2023-05-06T14:07:56.765Z,26.80
2023-05-06T14:10:33.854Z,26.80
2023-05-06T14:13:10.675Z,26.78
2023-05-06T14:15:47.648Z,26.70
2023-05-06T14:18:26.523Z,26.70
2023-05-06T14:21:02.569Z,26.70
2023-05-06T14:23:39.023Z,26.70
2023-05-06T14:26:16.230Z,26.70
2023-05-06T14:28:52.808Z,26.70
2023-05-06T14:31:29.857Z,26.70
2023-05-06T14:34:07.753Z,26.70
2023-05-06T14:36:44.764Z,26.68
2023-05-06T14:39:21.133Z,26.66
2023-05-06T14:41:57.669Z,26.60
2023-05-06T14:44:34.450Z,26.60
2023-05-06T14:47:10.724Z,26.58
2023-05-06T14:49:47.307Z,26.50
2023-05-06T14:52:23.351Z,26.50
2023-05-06T14:55:00.110Z,26.50
2023-05-06T14:57:35.811Z,26.50
2023-05-06T15:00:20.877Z,26.50
2023-05-06T15:02:57.587Z,26.40
2023-05-06T15:05:33.906Z,26.40
2023-05-06T15:08:10.256Z,26.30
2023-05-06T15:10:46.932Z,26.20
2023-05-06T15:13:23.128Z,26.20
2023-05-06T15:16:00.292Z,26.10
2023-05-06T15:18:38.167Z,26.00
2023-05-06T15:21:13.960Z,26.00
2023-05-06T15:23:55.761Z,26.00
2023-05-06T15:26:32.527Z,25.90
2023-05-06T15:29:09.233Z,25.72
2023-05-06T15:31:47.870Z,25.70
2023-05-06T15:34:24.656Z,25.70
2023-05-06T15:37:02.526Z,25.60
2023-05-06T15:39:42.524Z,25.60
2023-05-06T15:42:19.876Z,25.60
2023-05-06T15:44:57.239Z,25.60
2023-05-06T15:47:34.579Z,25.54
2023-05-06T15:50:29.022Z,25.50
2023-05-06T15:53:09.412Z,25.52
2023-05-06T15:55:54.642Z,25.58
2023-05-06T15:58:33.999Z,25.60
2023-05-06T16:01:11.169Z,25.54
2023-05-06T16:03:47.725Z,25.50
2023-05-06T16:06:23.821Z,25.50
2023-05-06T16:09:00.968Z,25.50
2023-05-06T16:11:37.410Z,25.60
2023-05-06T16:14:13.608Z,25.68
2023-05-06T16:16:50.586Z,25.70
2023-05-06T16:19:27.288Z,25.80
2023-05-06T16:22:04.605Z,25.80
2023-05-06T16:24:40.689Z,25.80
2023-05-06T16:27:17.737Z,25.80
2023-05-06T16:29:54.720Z,25.70
2023-05-06T16:32:31.123Z,25.70
2023-05-06T16:35:07.871Z,25.70
2023-05-06T16:37:45.441Z,25.70
2023-05-06T16:40:25.913Z,25.70
2023-05-06T16:43:02.738Z,25.70
2023-05-06T16:45:40.014Z,25.60
2023-05-06T16:48:16.997Z,25.50
2023-05-06T16:50:54.482Z,25.50
2023-05-06T16:53:30.987Z,25.40
2023-05-06T16:56:09.178Z,25.30
2023-05-06T16:58:46.044Z,25.30
2023-05-06T17:01:22.416Z,25.20
2023-05-06T17:03:59.254Z,25.20
2023-05-06T17:06:36.169Z,25.10
2023-05-06T17:09:13.281Z,25.10
2023-05-06T17:11:49.982Z,25.00
2023-05-06T17:14:28.128Z,25.00
2023-05-06T17:17:05.505Z,24.92
2023-05-06T17:19:42.420Z,24.90
2023-05-06T17:22:18.181Z,24.80
2023-05-06T17:24:54.639Z,24.80
2023-05-06T17:27:30.937Z,24.70
2023-05-06T17:30:10.418Z,24.70
2023-05-06T17:32:47.184Z,24.62
2023-05-06T17:35:24.502Z,24.60
2023-05-06T17:38:00.904Z,24.60
2023-05-06T17:40:35.790Z,24.60
2023-05-06T17:43:12.168Z,24.60
2023-05-06T17:45:49.445Z,24.60
2023-05-06T17:48:25.889Z,24.60
2023-05-06T17:51:07.514Z,24.60
2023-05-06T17:53:43.161Z,24.60
2023-05-06T17:56:20.480Z,24.60
2023-05-06T17:58:56.633Z,24.60
2023-05-06T18:01:33.438Z,24.54
2023-05-06T18:04:09.696Z,24.50
2023-05-06T18:06:46.360Z,24.50
2023-05-06T18:09:23.499Z,24.50
2023-05-06T18:12:00.273Z,24.50
2023-05-06T18:14:37.022Z,24.42
2023-05-06T18:17:13.440Z,24.40
2023-05-06T18:19:49.685Z,24.30
2023-05-06T18:22:25.654Z,24.30
2023-05-06T18:25:02.666Z,24.30
2023-05-06T18:27:39.509Z,24.30
2023-05-06T18:30:19.810Z,24.30
2023-05-06T18:32:56.749Z,24.20
2023-05-06T18:35:33.411Z,24.10
2023-05-06T18:38:10.283Z,24.00
2023-05-06T18:40:50.768Z,24.00
2023-05-06T18:43:27.408Z,23.90
2023-05-06T18:46:05.674Z,23.80
2023-05-06T18:48:41.943Z,23.70
2023-05-06T18:51:19.518Z,23.64
2023-05-06T18:53:56.726Z,23.60
2023-05-06T18:56:33.762Z,23.50
2023-05-06T18:59:10.643Z,23.40
2023-05-06T19:01:46.186Z,23.30
2023-05-06T19:04:22.427Z,23.20
2023-05-06T19:06:57.689Z,23.10
2023-05-06T19:09:37.154Z,23.00
2023-05-06T19:12:14.106Z,22.90
2023-05-06T19:14:50.557Z,22.80
2023-05-06T19:17:29.376Z,22.70
2023-05-06T19:20:06.467Z,22.66
2023-05-06T19:22:43.286Z,22.60
2023-05-06T19:25:21.549Z,22.50
2023-05-06T19:27:57.698Z,22.40
2023-05-06T19:30:36.320Z,22.40
2023-05-06T19:33:12.504Z,22.30
2023-05-06T19:35:49.064Z,22.20
2023-05-06T19:38:25.477Z,22.20
2023-05-06T19:41:01.956Z,22.10
2023-05-06T19:43:42.428Z,22.10
2023-05-06T19:46:19.581Z,22.02
2023-05-06T19:48:55.933Z,22.00
2023-05-06T19:51:32.390Z,22.00
2023-05-06T19:54:08.975Z,21.96
2023-05-06T19:56:45.618Z,21.90
2023-05-06T19:59:22.222Z,21.90
2023-05-06T20:02:02.193Z,21.80
2023-05-06T20:04:38.962Z,21.80
2023-05-06T20:07:15.773Z,21.80
2023-05-06T20:09:56.342Z,21.70
2023-05-06T20:12:33.431Z,21.70
2023-05-06T20:15:14.548Z,21.70
2023-05-06T20:17:51.679Z,21.70
2023-05-06T20:20:34.783Z,21.80
2023-05-06T20:23:10.774Z,21.80
2023-05-06T20:25:47.464Z,21.80
2023-05-06T20:28:25.180Z,21.90
2023-05-06T20:31:02.404Z,21.90
2023-05-06T20:33:38.999Z,21.90
2023-05-06T20:36:15.978Z,21.90
2023-05-06T20:38:53.897Z,21.90
2023-05-06T20:41:31.334Z,21.90
2023-05-06T20:44:07.583Z,21.90
2023-05-06T20:46:44.286Z,21.90
2023-05-06T20:49:20.644Z,21.90
2023-05-06T20:51:57.824Z,21.90
2023-05-06T20:54:34.718Z,21.92
2023-05-06T20:57:10.879Z,21.90
2023-05-06T20:59:49.886Z,21.90
2023-05-06T21:02:29.277Z,21.86
2023-05-06T21:05:05.629Z,21.80
2023-05-06T21:07:42.150Z,21.80
2023-05-06T21:10:20.236Z,21.80
2023-05-06T21:12:56.582Z,21.78
2023-05-06T21:15:34.129Z,21.70
2023-05-06T21:18:11.097Z,21.60
2023-05-06T21:20:48.025Z,21.52
2023-05-06T21:23:24.342Z,21.50
2023-05-06T21:26:01.651Z,21.50
2023-05-06T21:28:38.256Z,21.40
2023-05-06T21:31:14.833Z,21.40
2023-05-06T21:33:50.630Z,21.40
2023-05-06T21:36:26.756Z,21.40
2023-05-06T21:39:12.860Z,21.36
2023-05-06T21:41:48.861Z,21.30
2023-05-06T21:44:25.450Z,21.30
2023-05-06T21:47:01.840Z,21.20
2023-05-06T21:49:39.415Z,21.18
2023-05-06T21:52:15.332Z,21.10
2023-05-06T21:54:52.564Z,21.10
2023-05-06T21:57:29.317Z,21.00
2023-05-06T22:00:08.873Z,21.00
2023-05-06T22:02:44.901Z,20.90
2023-05-06T22:05:21.065Z,20.90
2023-05-06T22:07:57.868Z,20.90
2023-05-06T22:10:35.549Z,20.90
2023-05-06T22:13:11.765Z,20.80
2023-05-06T22:15:48.333Z,20.76
2023-05-06T22:18:25.773Z,20.70
2023-05-06T22:21:02.351Z,20.70
2023-05-06T22:23:40.715Z,20.70
2023-05-06T22:26:16.716Z,20.70
2023-05-06T22:28:53.179Z,20.60
2023-05-06T22:31:29.950Z,20.60
2023-05-06T22:34:06.561Z,20.60
2023-05-06T22:36:43.931Z,20.62
2023-05-06T22:39:20.490Z,20.60
2023-05-06T22:41:56.620Z,20.60
2023-05-06T22:44:33.377Z,20.50
2023-05-06T22:47:09.447Z,20.40
2023-05-06T22:49:46.517Z,20.40
2023-05-06T22:52:22.990Z,20.36
2023-05-06T22:54:59.488Z,20.38
2023-05-06T22:57:36.061Z,20.38
2023-05-06T23:00:19.163Z,20.30
2023-05-06T23:02:56.401Z,20.26
2023-05-06T23:05:33.112Z,20.20
2023-05-06T23:08:11.069Z,20.20
2023-05-06T23:10:47.597Z,20.20
2023-05-06T23:13:23.464Z,20.20
2023-05-06T23:16:00.132Z,20.20
2023-05-06T23:18:37.043Z,20.16
2023-05-06T23:21:14.000Z,20.14
2023-05-06T23:23:50.861Z,20.10
2023-05-06T23:26:27.048Z,20.10
2023-05-06T23:29:03.812Z,20.10
2023-05-06T23:31:40.678Z,20.10
2023-05-06T23:34:16.615Z,20.02
2023-05-06T23:36:52.896Z,20.00
2023-05-06T23:39:29.311Z,20.06
2023-05-06T23:42:06.515Z,20.08
2023-05-06T23:44:42.551Z,20.00
2023-05-06T23:47:18.748Z,20.00
2023-05-06T23:49:55.383Z,20.00
2023-05-06T23:52:32.338Z,20.00
2023-05-06T23:55:13.045Z,20.00
2023-05-06T23:57:50.003Z,20.00
